createdAt,value
2017-12-29T00:01:51.059Z,76.10
2017-12-29T00:04:18.618Z,75.00
2017-12-29T00:06:46.159Z,75.20
2017-12-29T00:09:13.701Z,76.10
2017-12-29T00:11:41.263Z,76.10
2017-12-29T00:14:08.794Z,76.10
2017-12-29T00:16:36.394Z,75.40
2017-12-29T00:19:03.925Z,75.10
2017-12-29T00:21:31.549Z,75.80
2017-12-29T00:23:59.873Z,75.20
2017-12-29T00:26:27.453Z,75.20
2017-12-29T00:28:54.994Z,77.20
2017-12-29T00:31:22.558Z,75.70
2017-12-29T00:33:50.050Z,76.20
2017-12-29T00:36:18.426Z,73.30
2017-12-29T00:38:45.979Z,73.10
2017-12-29T00:41:14.699Z,72.00
2017-12-29T00:43:42.248Z,71.90
2017-12-29T00:46:10.518Z,72.90
2017-12-29T00:48:38.727Z,71.90
2017-12-29T00:51:06.183Z,71.50
2017-12-29T00:53:34.449Z,71.60
2017-12-29T00:56:01.891Z,71.60
2017-12-29T00:58:29.402Z,72.10
2017-12-29T01:00:56.838Z,72.00
2017-12-29T01:03:24.456Z,72.40
2017-12-29T01:05:52.720Z,72.00
2017-12-29T01:08:21.037Z,72.30
2017-12-29T01:10:48.568Z,72.20
2017-12-29T01:13:16.744Z,71.70
2017-12-29T01:15:44.250Z,72.70
2017-12-29T01:18:11.790Z,72.10
2017-12-29T01:20:39.337Z,73.10
2017-12-29T01:23:06.840Z,73.60
2017-12-29T01:25:34.368Z,73.80
2017-12-29T01:28:01.842Z,73.20
2017-12-29T01:30:29.327Z,74.20
2017-12-29T01:32:57.620Z,74.10
2017-12-29T01:35:25.059Z,74.00
2017-12-29T01:37:53.289Z,74.50
2017-12-29T01:40:20.731Z,74.50
2017-12-29T01:42:48.193Z,74.30
2017-12-29T01:45:15.644Z,74.30
2017-12-29T01:47:55.638Z,74.60
2017-12-29T01:50:23.136Z,74.30
2017-12-29T01:52:50.712Z,73.60
2017-12-29T01:55:19.040Z,74.50
2017-12-29T01:57:46.573Z,74.00
2017-12-29T02:00:14.100Z,75.40
2017-12-29T02:02:41.611Z,75.30
2017-12-29T02:05:09.175Z,74.40
2017-12-29T02:07:37.492Z,75.40
2017-12-29T02:10:05.012Z,75.50
2017-12-29T02:12:33.306Z,74.00
2017-12-29T02:15:00.839Z,74.00
2017-12-29T02:17:29.100Z,73.00
2017-12-29T02:19:56.643Z,72.90
2017-12-29T02:22:24.135Z,72.70
2017-12-29T02:24:51.689Z,72.90
2017-12-29T02:27:20.011Z,73.60
2017-12-29T02:29:47.531Z,73.60
2017-12-29T02:32:15.096Z,73.80
2017-12-29T02:34:43.351Z,72.50
2017-12-29T02:37:10.903Z,72.40
2017-12-29T02:39:38.469Z,72.10
2017-12-29T02:42:06.002Z,72.40
2017-12-29T02:44:33.497Z,71.90
2017-12-29T02:47:01.035Z,71.40
2017-12-29T02:49:28.516Z,71.70
2017-12-29T02:51:56.741Z,71.70
2017-12-29T02:54:24.195Z,71.70
2017-12-29T02:56:51.651Z,71.40
2017-12-29T02:59:19.100Z,71.70
2017-12-29T03:01:46.555Z,73.80
2017-12-29T03:04:14.025Z,73.60
2017-12-29T03:06:41.515Z,74.30
2017-12-29T03:09:09.801Z,71.70
2017-12-29T03:11:38.070Z,73.70
2017-12-29T03:14:06.304Z,71.50
2017-12-29T03:16:33.868Z,71.50
2017-12-29T03:19:01.321Z,71.70
2017-12-29T03:21:28.779Z,72.10
2017-12-29T03:23:56.254Z,71.90
2017-12-29T03:26:23.712Z,71.70
2017-12-29T03:28:51.156Z,70.90
2017-12-29T03:31:18.616Z,69.90
2017-12-29T03:33:46.090Z,69.80
2017-12-29T03:36:13.548Z,69.60
2017-12-29T03:38:41.775Z,69.70
2017-12-29T03:41:09.231Z,69.70
2017-12-29T03:43:36.674Z,69.20
2017-12-29T03:46:04.135Z,68.30
2017-12-29T03:48:31.586Z,68.50
2017-12-29T03:50:59.048Z,68.80
2017-12-29T03:53:26.511Z,68.50
2017-12-29T03:55:53.973Z,68.60
2017-12-29T03:58:21.419Z,67.40
2017-12-29T04:00:48.872Z,68.50
2017-12-29T04:03:16.323Z,68.10
2017-12-29T04:05:43.778Z,67.60
2017-12-29T04:08:11.239Z,67.40
2017-12-29T04:10:38.699Z,67.30
2017-12-29T04:13:06.154Z,67.10
2017-12-29T04:15:33.609Z,66.90
2017-12-29T04:18:01.059Z,67.10
2017-12-29T04:20:28.516Z,66.90
2017-12-29T04:22:55.971Z,67.00
2017-12-29T04:25:23.474Z,67.30
2017-12-29T04:27:50.918Z,67.80
2017-12-29T04:30:18.375Z,67.00
2017-12-29T04:32:46.818Z,67.20
2017-12-29T04:35:14.326Z,66.60
2017-12-29T04:37:41.860Z,66.30
2017-12-29T04:40:09.329Z,66.10
2017-12-29T04:42:36.783Z,66.30
2017-12-29T04:45:04.284Z,66.40
2017-12-29T04:47:31.738Z,66.40
2017-12-29T04:49:59.183Z,65.40
2017-12-29T04:52:26.851Z,66.50
2017-12-29T04:54:55.075Z,65.70
2017-12-29T04:57:25.948Z,65.70
2017-12-29T04:59:53.495Z,66.00
2017-12-29T05:02:21.309Z,66.50
2017-12-29T05:04:48.861Z,65.80
2017-12-29T05:07:16.396Z,66.30
2017-12-29T05:09:43.939Z,66.60
2017-12-29T05:12:12.162Z,66.50
2017-12-29T05:14:39.622Z,66.40
2017-12-29T05:17:07.083Z,66.90
2017-12-29T05:19:34.532Z,68.20
2017-12-29T05:22:02.363Z,67.50
2017-12-29T05:24:30.568Z,68.30
2017-12-29T05:26:58.263Z,68.40
2017-12-29T05:29:25.787Z,68.00
2017-12-29T05:31:53.244Z,69.10
2017-12-29T05:34:20.944Z,69.70
2017-12-29T05:36:48.467Z,70.30
2017-12-29T05:39:15.969Z,70.10
2017-12-29T05:41:43.414Z,70.10
2017-12-29T05:44:10.863Z,68.80
2017-12-29T05:46:38.361Z,69.40
2017-12-29T05:49:05.866Z,70.00
2017-12-29T05:51:33.531Z,70.50
2017-12-29T05:54:01.065Z,69.40
2017-12-29T05:56:28.607Z,66.20
2017-12-29T05:58:56.059Z,66.30
2017-12-29T06:01:23.502Z,65.90
2017-12-29T06:03:51.727Z,64.60
2017-12-29T06:06:19.174Z,64.80
2017-12-29T06:08:46.632Z,64.00
2017-12-29T06:11:14.080Z,63.30
2017-12-29T06:13:41.529Z,64.30
2017-12-29T06:16:08.979Z,64.50
2017-12-29T06:18:36.441Z,64.90
2017-12-29T06:21:03.899Z,64.70
2017-12-29T06:23:31.391Z,64.30
2017-12-29T06:25:58.846Z,64.10
2017-12-29T06:28:27.018Z,63.10
2017-12-29T06:30:54.479Z,63.50
2017-12-29T06:33:27.394Z,62.80
2017-12-29T06:35:54.849Z,62.90
2017-12-29T06:38:23.059Z,62.10
2017-12-29T06:40:50.517Z,62.00
2017-12-29T06:43:17.979Z,61.20
2017-12-29T06:46:05.231Z,63.30
2017-12-29T06:48:32.690Z,62.00
2017-12-29T06:51:00.226Z,63.80
2017-12-29T06:53:27.679Z,64.60
2017-12-29T06:55:55.167Z,61.90
2017-12-29T06:58:22.610Z,61.90
2017-12-29T07:00:50.050Z,61.40
2017-12-29T07:03:17.498Z,61.30
2017-12-29T07:05:44.950Z,62.10
2017-12-29T07:08:12.404Z,61.70
2017-12-29T07:10:39.861Z,60.00
2017-12-29T07:13:07.306Z,59.60
2017-12-29T07:15:34.762Z,59.50
2017-12-29T07:18:02.230Z,59.40
2017-12-29T07:20:29.695Z,58.40
2017-12-29T07:22:57.150Z,58.20
2017-12-29T07:25:24.616Z,59.60
2017-12-29T07:27:52.072Z,57.90
2017-12-29T07:30:19.539Z,57.60
2017-12-29T07:32:46.995Z,58.50
2017-12-29T07:35:14.459Z,57.50
2017-12-29T07:37:41.902Z,57.90
2017-12-29T07:40:09.417Z,57.50
2017-12-29T07:42:36.816Z,57.60
2017-12-29T07:45:04.309Z,56.70
2017-12-29T07:47:32.613Z,56.60
2017-12-29T07:50:00.097Z,56.60
2017-12-29T07:52:27.551Z,56.80
2017-12-29T07:54:55.005Z,57.30
2017-12-29T07:57:22.452Z,57.60
2017-12-29T07:59:49.915Z,56.60
2017-12-29T08:02:17.379Z,57.40
2017-12-29T08:04:44.828Z,57.60
2017-12-29T08:07:12.287Z,57.70
2017-12-29T08:09:39.744Z,57.60
2017-12-29T08:12:07.200Z,57.70
2017-12-29T08:14:34.963Z,57.30
2017-12-29T08:17:02.416Z,56.80
2017-12-29T08:19:29.880Z,57.10
2017-12-29T08:21:57.723Z,56.10
2017-12-29T08:24:25.181Z,56.50
2017-12-29T08:26:52.939Z,56.60
2017-12-29T08:29:20.413Z,57.30
2017-12-29T08:31:47.863Z,56.70
2017-12-29T08:34:15.314Z,56.50
2017-12-29T08:36:42.771Z,57.30
2017-12-29T08:39:10.227Z,56.70
2017-12-29T08:41:37.704Z,56.30
2017-12-29T08:44:05.162Z,56.90
2017-12-29T08:46:32.624Z,56.70
2017-12-29T08:49:00.081Z,56.10
2017-12-29T08:51:27.532Z,56.00
2017-12-29T08:53:54.991Z,56.40
2017-12-29T08:56:22.447Z,56.80
2017-12-29T08:58:49.899Z,55.80
2017-12-29T09:01:17.359Z,56.10
2017-12-29T09:03:44.802Z,56.50
2017-12-29T09:06:12.519Z,56.60
2017-12-29T09:08:40.006Z,57.40
2017-12-29T09:11:07.560Z,56.90
2017-12-29T09:13:35.059Z,57.20
2017-12-29T09:16:03.392Z,57.00
2017-12-29T09:18:30.954Z,56.90
2017-12-29T09:20:58.484Z,57.10
2017-12-29T09:23:25.941Z,56.90
2017-12-29T09:25:53.464Z,56.80
2017-12-29T09:28:21.005Z,57.20
2017-12-29T09:30:48.544Z,56.60
2017-12-29T09:33:16.091Z,56.60
2017-12-29T09:35:43.652Z,56.80
2017-12-29T09:38:11.206Z,56.20
2017-12-29T09:40:38.746Z,55.10
2017-12-29T09:43:06.307Z,55.10
2017-12-29T09:45:33.848Z,53.50
2017-12-29T09:48:01.416Z,53.00
2017-12-29T09:50:28.957Z,52.50
2017-12-29T09:52:57.248Z,51.20
2017-12-29T09:55:25.090Z,51.20
2017-12-29T09:57:52.644Z,50.90
2017-12-29T10:00:20.180Z,50.20
2017-12-29T10:02:47.716Z,49.60
2017-12-29T10:05:15.239Z,50.70
2017-12-29T10:07:42.776Z,48.90
2017-12-29T10:10:11.081Z,48.40
2017-12-29T10:12:38.611Z,48.30
2017-12-29T10:15:06.154Z,47.40
2017-12-29T10:17:33.680Z,46.20
2017-12-29T10:20:01.212Z,46.50
2017-12-29T10:22:28.739Z,46.00
2017-12-29T10:24:56.289Z,47.10
2017-12-29T10:27:23.909Z,47.50
2017-12-29T10:29:51.429Z,45.40
2017-12-29T10:32:19.727Z,46.30
2017-12-29T10:34:47.250Z,46.30
2017-12-29T10:37:14.796Z,45.10
2017-12-29T10:39:42.903Z,46.00
2017-12-29T10:42:11.164Z,44.50
2017-12-29T10:44:38.708Z,44.50
2017-12-29T10:47:06.236Z,45.50
2017-12-29T10:49:33.818Z,45.60
2017-12-29T10:52:01.291Z,45.70
2017-12-29T10:54:29.613Z,43.60
2017-12-29T10:56:57.127Z,43.50
2017-12-29T10:59:25.456Z,45.10
2017-12-29T11:01:52.964Z,45.10
2017-12-29T11:04:20.524Z,45.50
2017-12-29T11:06:48.065Z,43.80
2017-12-29T11:09:15.552Z,43.20
2017-12-29T11:11:43.079Z,44.70
2017-12-29T11:14:10.563Z,44.00
2017-12-29T11:16:38.819Z,42.10
2017-12-29T11:19:06.351Z,42.10
2017-12-29T11:21:33.900Z,40.80
2017-12-29T11:24:01.419Z,42.80
2017-12-29T11:26:28.960Z,42.30
2017-12-29T11:28:57.248Z,41.00
2017-12-29T11:31:24.783Z,41.00
2017-12-29T11:33:52.307Z,42.00
2017-12-29T11:36:19.824Z,42.10
2017-12-29T11:38:47.347Z,40.80
2017-12-29T11:41:14.879Z,41.60
2017-12-29T11:43:42.372Z,40.70
2017-12-29T11:46:09.843Z,40.70
2017-12-29T11:48:38.123Z,42.70
2017-12-29T11:51:05.607Z,42.70
2017-12-29T11:53:33.587Z,42.90
2017-12-29T11:56:01.134Z,41.60
2017-12-29T11:58:28.668Z,42.20
2017-12-29T12:00:56.253Z,42.10
2017-12-29T12:03:23.764Z,42.80
2017-12-29T12:05:52.047Z,40.80
2017-12-29T12:08:20.345Z,40.90
2017-12-29T12:10:47.895Z,40.90
2017-12-29T12:13:15.422Z,40.10
2017-12-29T12:15:42.916Z,39.30
2017-12-29T12:18:10.439Z,38.80
2017-12-29T12:20:38.108Z,38.50
2017-12-29T12:23:05.630Z,40.20
2017-12-29T12:25:33.161Z,40.80
2017-12-29T12:28:00.732Z,42.80
2017-12-29T12:30:28.351Z,42.00
2017-12-29T12:32:55.960Z,40.40
2017-12-29T12:35:23.530Z,39.80
2017-12-29T12:37:51.124Z,39.50
2017-12-29T12:40:18.674Z,41.60
2017-12-29T12:42:46.217Z,40.50
2017-12-29T12:45:13.766Z,41.00
2017-12-29T12:47:41.349Z,40.90
2017-12-29T12:50:09.680Z,42.50
2017-12-29T12:52:37.202Z,42.50
2017-12-29T12:55:04.847Z,42.60
2017-12-29T12:57:33.123Z,43.50
2017-12-29T13:00:00.676Z,43.50
2017-12-29T13:02:28.241Z,42.90
2017-12-29T13:04:55.772Z,42.90
2017-12-29T13:07:24.229Z,46.50
2017-12-29T13:09:51.758Z,45.10
2017-12-29T13:12:20.168Z,48.00
2017-12-29T13:14:47.682Z,47.90
2017-12-29T13:17:15.153Z,46.60
2017-12-29T13:19:42.644Z,46.20
2017-12-29T13:22:10.204Z,46.80
2017-12-29T13:24:40.224Z,48.50
2017-12-29T13:27:07.788Z,46.80
2017-12-29T13:29:35.279Z,48.60
2017-12-29T13:32:03.507Z,48.00
2017-12-29T13:34:31.094Z,48.00
2017-12-29T13:36:58.636Z,49.30
2017-12-29T13:39:26.185Z,47.30
2017-12-29T13:41:53.692Z,48.50
2017-12-29T13:44:21.916Z,48.40
2017-12-29T13:46:49.932Z,48.50
2017-12-29T13:49:18.189Z,49.30
2017-12-29T13:51:45.651Z,49.20
2017-12-29T13:54:13.146Z,49.50
2017-12-29T13:56:40.600Z,48.80
2017-12-29T13:59:08.035Z,48.20
2017-12-29T14:01:36.256Z,47.90
2017-12-29T14:04:03.713Z,47.90
2017-12-29T14:06:31.179Z,48.90
2017-12-29T14:08:58.623Z,50.10
2017-12-29T14:11:26.130Z,49.60
2017-12-29T14:13:53.574Z,51.30
2017-12-29T14:16:21.061Z,49.40
2017-12-29T14:18:48.498Z,49.40
2017-12-29T14:21:16.720Z,51.00
2017-12-29T14:23:44.198Z,50.90
2017-12-29T14:26:11.647Z,50.70
2017-12-29T14:28:39.146Z,52.10
2017-12-29T14:31:06.586Z,52.40
2017-12-29T14:33:34.048Z,52.00
2017-12-29T14:36:02.276Z,52.20
2017-12-29T14:38:29.763Z,52.20
2017-12-29T14:40:57.199Z,53.00
2017-12-29T14:43:24.653Z,53.00
2017-12-29T14:45:52.095Z,52.20
2017-12-29T14:48:19.599Z,53.20
2017-12-29T14:50:47.038Z,52.50
2017-12-29T14:53:14.496Z,52.40
2017-12-29T14:55:41.964Z,52.60
2017-12-29T14:58:09.412Z,53.40
2017-12-29T15:00:36.873Z,53.40
2017-12-29T15:03:04.376Z,54.00
2017-12-29T15:05:31.828Z,54.10
2017-12-29T15:07:59.274Z,54.30
2017-12-29T15:10:26.765Z,54.30
2017-12-29T15:12:54.210Z,54.70
2017-12-29T15:15:21.667Z,54.70
2017-12-29T15:17:51.018Z,54.90
2017-12-29T15:20:19.240Z,56.00
2017-12-29T15:22:48.297Z,56.40
2017-12-29T15:25:16.571Z,55.90
2017-12-29T15:27:44.848Z,56.10
2017-12-29T15:30:13.088Z,56.60
2017-12-29T15:32:40.579Z,56.50
2017-12-29T15:35:08.896Z,57.10
2017-12-29T15:37:37.222Z,57.00
2017-12-29T15:40:05.491Z,56.80
2017-12-29T15:42:32.904Z,56.80
2017-12-29T15:45:00.389Z,57.10
2017-12-29T15:47:27.890Z,57.00
2017-12-29T15:49:56.143Z,57.20
2017-12-29T15:52:23.580Z,57.10
2017-12-29T15:54:51.076Z,56.90
2017-12-29T15:57:19.323Z,57.20
2017-12-29T15:59:46.813Z,57.10
2017-12-29T16:02:25.680Z,56.90
2017-12-29T16:04:53.132Z,56.60
2017-12-29T16:07:21.179Z,56.60
2017-12-29T16:09:49.355Z,56.70
2017-12-29T16:12:16.841Z,56.70
2017-12-29T16:14:44.637Z,56.30
2017-12-29T16:17:12.282Z,56.60
2017-12-29T16:19:39.777Z,56.40
2017-12-29T16:22:07.218Z,56.30
2017-12-29T16:24:35.487Z,55.60
2017-12-29T16:27:03.745Z,55.70
2017-12-29T16:29:31.202Z,55.80
2017-12-29T16:31:58.647Z,55.50
2017-12-29T16:34:26.102Z,55.70
2017-12-29T16:36:53.559Z,55.40
2017-12-29T16:39:21.058Z,55.20
2017-12-29T16:41:48.550Z,55.30
2017-12-29T16:44:16.053Z,55.50
2017-12-29T16:46:44.282Z,55.30
2017-12-29T16:49:11.888Z,55.80
2017-12-29T16:51:40.108Z,56.00
2017-12-29T16:54:07.625Z,56.00
2017-12-29T16:56:35.896Z,57.80
2017-12-29T16:59:04.186Z,58.50
2017-12-29T17:01:31.670Z,58.40
2017-12-29T17:03:59.123Z,60.60
2017-12-29T17:06:26.670Z,61.00
2017-12-29T17:08:54.112Z,62.60
2017-12-29T17:11:21.568Z,64.90
2017-12-29T17:13:49.053Z,65.50
2017-12-29T17:16:16.541Z,66.40
2017-12-29T17:18:44.028Z,67.80
2017-12-29T17:21:11.487Z,67.80
2017-12-29T17:23:39.740Z,67.20
2017-12-29T17:26:07.255Z,67.30
2017-12-29T17:28:34.711Z,67.20
2017-12-29T17:31:02.248Z,67.10
2017-12-29T17:33:29.739Z,69.40
2017-12-29T17:35:57.195Z,70.70
2017-12-29T17:38:24.676Z,71.00
2017-12-29T17:40:52.131Z,72.20
2017-12-29T17:43:19.628Z,72.80
2017-12-29T17:45:47.110Z,73.20
2017-12-29T17:48:14.589Z,71.70
2017-12-29T17:50:42.035Z,70.30
2017-12-29T17:53:09.536Z,69.90
2017-12-29T17:55:37.023Z,70.00
2017-12-29T17:58:04.514Z,71.90
2017-12-29T18:00:32.372Z,72.60
2017-12-29T18:02:59.864Z,73.50
2017-12-29T18:05:27.325Z,73.80
2017-12-29T18:07:55.589Z,73.80
2017-12-29T18:10:23.084Z,73.90
2017-12-29T18:12:50.588Z,74.40
2017-12-29T18:15:18.048Z,75.10
2017-12-29T18:17:45.544Z,75.50
2017-12-29T18:20:12.986Z,77.00
2017-12-29T18:22:41.270Z,79.00
2017-12-29T18:25:09.549Z,79.20
2017-12-29T18:27:37.811Z,79.90
2017-12-29T18:30:05.303Z,79.80
2017-12-29T18:32:32.801Z,78.60
2017-12-29T18:35:00.287Z,79.40
2017-12-29T18:37:28.569Z,80.00
2017-12-29T18:39:56.825Z,80.40
2017-12-29T18:42:25.087Z,80.30
2017-12-29T18:44:52.543Z,80.60
2017-12-29T18:47:20.058Z,80.50
2017-12-29T18:49:47.541Z,80.50
2017-12-29T18:52:14.999Z,80.10
2017-12-29T18:54:42.455Z,80.30
2017-12-29T18:57:09.907Z,80.40
2017-12-29T18:59:37.355Z,80.50
2017-12-29T19:02:04.859Z,80.20
2017-12-29T19:04:32.300Z,80.90
2017-12-29T19:06:59.798Z,81.50
2017-12-29T19:09:27.240Z,82.40
2017-12-29T19:11:54.691Z,83.60
2017-12-29T19:14:22.191Z,84.70
2017-12-29T19:16:49.682Z,85.70
2017-12-29T19:19:17.148Z,86.90
2017-12-29T19:21:44.643Z,87.70
2017-12-29T19:24:12.147Z,88.40
2017-12-29T19:26:39.669Z,87.90
2017-12-29T19:29:07.171Z,87.90
2017-12-29T19:31:34.662Z,88.50
2017-12-29T19:34:02.119Z,88.70
2017-12-29T19:36:30.523Z,88.20
2017-12-29T19:38:58.026Z,88.00
2017-12-29T19:41:25.515Z,88.10
2017-12-29T19:43:53.007Z,87.60
2017-12-29T19:46:20.502Z,87.70
2017-12-29T19:48:48.766Z,88.00
2017-12-29T19:51:16.259Z,88.10
2017-12-29T19:53:43.767Z,88.50
2017-12-29T19:56:11.654Z,88.60
2017-12-29T19:58:39.146Z,88.60
2017-12-29T20:01:06.631Z,87.80
2017-12-29T20:03:34.135Z,88.00
2017-12-29T20:06:02.494Z,88.90
2017-12-29T20:08:30.005Z,88.80
2017-12-29T20:10:57.510Z,88.90
2017-12-29T20:13:25.008Z,88.60
2017-12-29T20:15:52.499Z,88.70
2017-12-29T20:18:19.995Z,88.80
2017-12-29T20:20:48.271Z,89.50
2017-12-29T20:23:16.555Z,90.30
2017-12-29T20:25:44.058Z,90.00
2017-12-29T20:28:11.563Z,89.50
2017-12-29T20:30:40.124Z,89.60
2017-12-29T20:33:07.708Z,89.60
2017-12-29T20:35:35.259Z,89.40
2017-12-29T20:38:02.870Z,89.10
2017-12-29T20:40:30.396Z,88.70
2017-12-29T20:42:58.663Z,88.30
2017-12-29T20:45:26.956Z,88.40
2017-12-29T20:47:54.460Z,88.40
2017-12-29T20:50:21.967Z,87.60
2017-12-29T20:52:49.468Z,87.30
2017-12-29T20:55:16.984Z,86.80
2017-12-29T20:57:44.479Z,87.30
2017-12-29T21:00:11.978Z,86.70
2017-12-29T21:02:40.235Z,86.70
2017-12-29T21:05:07.747Z,86.60
2017-12-29T21:07:35.247Z,86.20
2017-12-29T21:10:02.772Z,86.30
2017-12-29T21:12:30.283Z,85.70
2017-12-29T21:14:58.559Z,84.40
2017-12-29T21:17:26.059Z,84.40
2017-12-29T21:19:53.567Z,84.80
2017-12-29T21:22:21.852Z,84.90
2017-12-29T21:24:49.354Z,84.90
2017-12-29T21:27:16.843Z,84.80
2017-12-29T21:29:44.344Z,84.90
2017-12-29T21:32:11.858Z,85.10
2017-12-29T21:34:39.363Z,85.50
2017-12-29T21:37:06.862Z,85.20
2017-12-29T21:39:34.372Z,84.90
2017-12-29T21:42:01.883Z,84.90
2017-12-29T21:44:29.381Z,84.70
2017-12-29T21:46:56.871Z,84.20
2017-12-29T21:49:24.375Z,83.20
2017-12-29T21:51:52.693Z,82.90
2017-12-29T21:54:20.178Z,82.80
2017-12-29T21:56:47.909Z,82.90
2017-12-29T21:59:15.404Z,83.50
2017-12-29T22:01:42.896Z,82.80
2017-12-29T22:04:11.159Z,83.00
2017-12-29T22:06:38.687Z,83.00
2017-12-29T22:09:06.178Z,83.30
2017-12-29T22:11:34.453Z,84.20
2017-12-29T22:14:01.959Z,83.00
2017-12-29T22:16:30.387Z,83.40
2017-12-29T22:18:58.661Z,83.40
2017-12-29T22:21:26.959Z,83.60
2017-12-29T22:23:54.451Z,83.50
2017-12-29T22:26:21.954Z,83.30
2017-12-29T22:28:49.456Z,83.50
2017-12-29T22:31:16.958Z,84.00
2017-12-29T22:33:45.234Z,84.10
2017-12-29T22:36:13.511Z,85.10
2017-12-29T22:38:41.786Z,84.30
2017-12-29T22:41:10.063Z,84.90
2017-12-29T22:43:38.339Z,85.30
2017-12-29T22:46:06.614Z,85.40
2017-12-29T22:48:34.879Z,85.40
2017-12-29T22:51:02.386Z,85.30
2017-12-29T22:53:30.438Z,85.70
2017-12-29T22:55:57.939Z,86.00
2017-12-29T22:58:25.434Z,85.50
2017-12-29T23:00:53.702Z,86.20
2017-12-29T23:03:21.962Z,85.90
2017-12-29T23:05:49.466Z,86.00
2017-12-29T23:08:17.725Z,86.10
2017-12-29T23:10:45.990Z,86.60
2017-12-29T23:13:13.485Z,86.60
2017-12-29T23:15:40.980Z,86.20
2017-12-29T23:18:08.476Z,86.70
2017-12-29T23:20:35.966Z,86.50
2017-12-29T23:23:03.480Z,85.90
2017-12-29T23:25:31.746Z,85.30
2017-12-29T23:28:00.026Z,85.30
2017-12-29T23:30:28.294Z,85.20
2017-12-29T23:32:55.802Z,85.20
2017-12-29T23:35:23.290Z,85.00
2017-12-29T23:37:50.786Z,84.70
2017-12-29T23:40:18.917Z,84.60
2017-12-29T23:42:46.406Z,84.40
2017-12-29T23:45:14.661Z,83.90
2017-12-29T23:47:42.154Z,83.80
2017-12-29T23:50:09.649Z,83.80
2017-12-29T23:52:37.156Z,82.50
2017-12-29T23:55:05.418Z,82.30
2017-12-29T23:57:33.691Z,82.00
